createdAt,value
2024-03-02T00:01:11.262Z,13.50
2024-03-02T00:03:47.784Z,15.80
2024-03-02T00:06:17.039Z,21.60
2024-03-02T00:08:45.484Z,18.80
2024-03-02T00:11:16.601Z,16.00
2024-03-02T00:13:44.906Z,17.80
2024-03-02T00:16:13.378Z,17.50
2024-03-02T00:18:41.824Z,20.40
2024-03-02T00:21:14.709Z,18.60
2024-03-02T00:23:43.239Z,25.90
2024-03-02T00:26:13.822Z,16.90
2024-03-02T00:28:42.922Z,16.20
2024-03-02T00:31:14.292Z,18.00
2024-03-02T00:33:45.483Z,17.70
2024-03-02T00:36:22.584Z,17.40
2024-03-02T00:38:52.571Z,16.70
2024-03-02T00:41:24.819Z,15.30
2024-03-02T00:44:04.869Z,18.30
2024-03-02T00:46:38.396Z,17.10
2024-03-02T00:49:21.074Z,16.00
2024-03-02T00:51:51.273Z,18.80
2024-03-02T00:54:25.838Z,17.70
2024-03-02T00:56:56.823Z,15.00
2024-03-02T00:59:26.983Z,16.50
2024-03-02T01:01:55.448Z,18.50
2024-03-02T01:04:24.051Z,17.50
2024-03-02T01:06:52.431Z,17.10
2024-03-02T01:09:20.805Z,18.60
2024-03-02T01:11:49.488Z,16.90
2024-03-02T01:14:17.776Z,20.60
2024-03-02T01:16:46.146Z,14.00
2024-03-02T01:19:14.628Z,15.50
2024-03-02T01:21:43.134Z,16.30
2024-03-02T01:24:11.400Z,16.00
2024-03-02T01:26:39.463Z,17.10
2024-03-02T01:29:07.835Z,16.10
2024-03-02T01:31:36.317Z,17.20
2024-03-02T01:34:04.552Z,16.10
2024-03-02T01:36:33.107Z,17.10
2024-03-02T01:39:02.274Z,16.40
2024-03-02T01:41:30.860Z,15.80
2024-03-02T01:43:59.128Z,18.50
2024-03-02T01:46:27.612Z,15.40
2024-03-02T01:48:57.161Z,15.00
2024-03-02T01:51:25.457Z,17.30
2024-03-02T01:53:54.077Z,14.40
2024-03-02T01:56:23.074Z,15.80
2024-03-02T01:58:51.549Z,18.30
2024-03-02T02:01:20.302Z,18.00
2024-03-02T02:03:48.736Z,16.70
2024-03-02T02:06:17.266Z,17.80
2024-03-02T02:08:46.604Z,15.80
2024-03-02T02:11:19.126Z,18.70
2024-03-02T02:13:47.588Z,16.90
2024-03-02T02:16:15.937Z,18.10
2024-03-02T02:18:44.363Z,18.00
2024-03-02T02:21:12.586Z,20.30
2024-03-02T02:23:40.993Z,18.50
2024-03-02T02:26:09.059Z,16.80
2024-03-02T02:28:37.435Z,16.50
2024-03-02T02:31:05.722Z,16.40
2024-03-02T02:33:34.314Z,20.20
2024-03-02T02:36:02.860Z,16.60
2024-03-02T02:38:33.304Z,15.40
2024-03-02T02:41:01.660Z,17.20
2024-03-02T02:43:30.042Z,16.40
2024-03-02T02:45:58.390Z,13.50
2024-03-02T02:48:26.809Z,14.30
2024-03-02T02:50:55.084Z,17.30
2024-03-02T02:53:23.348Z,16.80
2024-03-02T02:55:51.623Z,19.10
2024-03-02T02:58:19.808Z,14.80
2024-03-02T03:00:48.132Z,18.50
2024-03-02T03:03:16.471Z,14.50
2024-03-02T03:05:44.886Z,16.90
2024-03-02T03:08:13.204Z,16.60
2024-03-02T03:10:41.581Z,17.40
2024-03-02T03:13:10.193Z,16.20
2024-03-02T03:15:38.902Z,18.30
2024-03-02T03:18:08.821Z,16.20
2024-03-02T03:20:37.286Z,23.30
2024-03-02T03:23:05.732Z,16.30
2024-03-02T03:25:33.754Z,18.40
2024-03-02T03:28:03.100Z,15.90
2024-03-02T03:30:31.699Z,17.10
2024-03-02T03:33:00.065Z,16.90
2024-03-02T03:35:28.269Z,17.40
2024-03-02T03:37:56.726Z,14.40
2024-03-02T03:40:25.408Z,15.00
2024-03-02T03:42:53.597Z,16.70
2024-03-02T03:45:22.322Z,16.70
2024-03-02T03:47:50.861Z,15.40
2024-03-02T03:50:19.237Z,19.80
2024-03-02T03:52:47.715Z,17.00
2024-03-02T03:55:15.909Z,17.50
2024-03-02T03:57:44.290Z,17.30
2024-03-02T04:00:13.294Z,15.20
2024-03-02T04:02:41.959Z,16.80
2024-03-02T04:05:12.934Z,16.60
2024-03-02T04:07:42.295Z,18.60
2024-03-02T04:10:12.188Z,16.10
2024-03-02T04:12:40.797Z,18.10
2024-03-02T04:15:09.781Z,19.30
2024-03-02T04:17:38.460Z,15.00
2024-03-02T04:20:08.085Z,15.90
2024-03-02T04:22:37.228Z,14.60
2024-03-02T04:25:06.583Z,17.10
2024-03-02T04:27:35.153Z,16.30
2024-03-02T04:30:06.152Z,14.80
2024-03-02T04:32:34.328Z,16.20
2024-03-02T04:35:02.646Z,18.10
2024-03-02T04:37:32.290Z,17.80
2024-03-02T04:40:00.723Z,17.30
2024-03-02T04:42:29.037Z,18.00
2024-03-02T04:44:57.407Z,15.70
2024-03-02T04:47:25.814Z,15.20
2024-03-02T04:49:54.884Z,17.00
2024-03-02T04:52:22.975Z,16.10
2024-03-02T04:55:09.535Z,13.80
2024-03-02T04:57:37.735Z,17.40
2024-03-02T05:00:10.239Z,15.70
2024-03-02T05:02:38.554Z,15.50
2024-03-02T05:05:07.260Z,18.30
2024-03-02T05:07:35.739Z,18.00
2024-03-02T05:10:04.431Z,18.30
2024-03-02T05:12:44.892Z,16.90
2024-03-02T05:15:16.080Z,16.70
2024-03-02T05:17:44.525Z,15.30
2024-03-02T05:20:14.178Z,15.20
2024-03-02T05:22:42.576Z,16.60
2024-03-02T05:25:13.506Z,15.10
2024-03-02T05:27:42.353Z,17.60
2024-03-02T05:30:11.409Z,13.30
2024-03-02T05:32:39.549Z,15.70
2024-03-02T05:35:09.065Z,18.80
2024-03-02T05:37:37.274Z,16.60
2024-03-02T05:40:07.170Z,14.80
2024-03-02T05:42:35.695Z,14.80
2024-03-02T05:45:04.295Z,18.30
2024-03-02T05:47:34.035Z,14.70
2024-03-02T05:50:02.519Z,15.10
2024-03-02T05:52:30.702Z,19.20
2024-03-02T05:54:59.054Z,12.00
2024-03-02T05:57:46.773Z,17.20
2024-03-02T06:00:18.252Z,18.10
2024-03-02T06:02:46.964Z,17.10
2024-03-02T06:05:16.398Z,18.30
2024-03-02T06:07:44.954Z,16.80
2024-03-02T06:10:14.406Z,17.30
2024-03-02T06:12:43.708Z,21.00
2024-03-02T06:15:14.684Z,17.30
2024-03-02T06:17:43.192Z,15.40
2024-03-02T06:20:11.965Z,16.50
2024-03-02T06:22:40.353Z,14.00
2024-03-02T06:25:09.788Z,17.30
2024-03-02T06:27:38.352Z,18.20
2024-03-02T06:30:07.205Z,16.90
2024-03-02T06:32:35.569Z,13.50
2024-03-02T06:35:06.094Z,17.00
2024-03-02T06:37:34.339Z,17.70
2024-03-02T06:40:02.526Z,17.10
2024-03-02T06:42:34.924Z,18.00
2024-03-02T06:45:04.736Z,16.90
2024-03-02T06:47:33.079Z,17.70
2024-03-02T06:50:01.694Z,17.50
2024-03-02T06:52:30.077Z,18.00
2024-03-02T06:54:58.353Z,19.90
2024-03-02T06:57:26.774Z,16.10
2024-03-02T07:00:00.158Z,12.20
2024-03-02T07:02:29.343Z,17.80
2024-03-02T07:04:57.906Z,14.70
2024-03-02T07:07:26.068Z,18.90
2024-03-02T07:09:54.216Z,14.90
2024-03-02T07:12:22.664Z,14.00
2024-03-02T07:15:06.202Z,16.30
2024-03-02T07:17:35.071Z,14.70
2024-03-02T07:20:04.965Z,17.40
2024-03-02T07:22:34.569Z,14.10
2024-03-02T07:25:03.997Z,15.30
2024-03-02T07:27:33.417Z,14.70
2024-03-02T07:30:01.680Z,14.40
2024-03-02T07:32:30.043Z,16.50
2024-03-02T07:34:58.225Z,13.70
2024-03-02T07:37:26.491Z,16.00
2024-03-02T07:39:54.695Z,14.20
2024-03-02T07:42:22.992Z,14.40
2024-03-02T07:44:51.113Z,14.80
2024-03-02T07:47:19.386Z,14.40
2024-03-02T07:49:47.957Z,16.30
2024-03-02T07:52:16.337Z,14.70
2024-03-02T07:54:44.407Z,15.00
2024-03-02T07:57:12.898Z,15.40
2024-03-02T07:59:41.177Z,15.40
2024-03-02T08:02:09.904Z,15.80
2024-03-02T08:04:38.344Z,17.10
2024-03-02T08:07:07.420Z,16.20
2024-03-02T08:09:35.726Z,19.00
2024-03-02T08:12:05.441Z,14.60
2024-03-02T08:14:33.636Z,16.20
2024-03-02T08:17:03.007Z,17.30
2024-03-02T08:19:31.882Z,17.70
2024-03-02T08:22:01.079Z,16.20
2024-03-02T08:24:29.699Z,17.20
2024-03-02T08:26:58.660Z,19.60
2024-03-02T08:29:26.970Z,15.70
2024-03-02T08:31:55.641Z,16.50
2024-03-02T08:34:23.907Z,17.90
2024-03-02T08:36:52.619Z,17.70
2024-03-02T08:39:22.121Z,19.60
2024-03-02T08:41:50.456Z,17.50
2024-03-02T08:44:18.786Z,16.20
2024-03-02T08:46:47.629Z,16.20
2024-03-02T08:49:15.844Z,14.30
2024-03-02T08:51:44.127Z,15.00
2024-03-02T08:54:12.376Z,15.60
2024-03-02T08:56:40.699Z,16.90
2024-03-02T08:59:09.434Z,16.70
2024-03-02T09:01:42.883Z,14.20
2024-03-02T09:04:11.251Z,14.50
2024-03-02T09:06:39.906Z,15.20
2024-03-02T09:09:08.191Z,15.40
2024-03-02T09:11:37.874Z,17.60
2024-03-02T09:14:06.370Z,14.50
2024-03-02T09:16:34.754Z,16.20
2024-03-02T09:19:03.091Z,14.50
2024-03-02T09:21:31.555Z,16.40
2024-03-02T09:23:59.961Z,15.80
2024-03-02T09:26:28.679Z,14.40
2024-03-02T09:28:57.028Z,14.40
2024-03-02T09:31:25.178Z,15.90
2024-03-02T09:33:53.448Z,16.20
2024-03-02T09:36:23.633Z,15.30
2024-03-02T09:38:51.809Z,14.30
2024-03-02T09:41:20.814Z,15.00
2024-03-02T09:43:50.206Z,14.60
2024-03-02T09:46:20.593Z,14.80
2024-03-02T09:48:48.769Z,15.90
2024-03-02T09:51:20.788Z,15.50
2024-03-02T09:53:50.176Z,16.30
2024-03-02T09:56:19.576Z,15.20
2024-03-02T09:58:47.845Z,17.60
2024-03-02T10:01:16.283Z,16.20
2024-03-02T10:03:47.129Z,16.10
2024-03-02T10:06:29.570Z,15.60
2024-03-02T10:08:58.053Z,15.50
2024-03-02T10:11:35.354Z,14.20
2024-03-02T10:14:14.079Z,16.70
2024-03-02T10:16:44.276Z,14.90
2024-03-02T10:19:22.731Z,15.80
2024-03-02T10:21:52.954Z,12.80
2024-03-02T10:24:23.533Z,13.40
2024-03-02T10:26:52.450Z,12.40
2024-03-02T10:29:20.781Z,14.90
2024-03-02T10:31:49.174Z,15.20
2024-03-02T10:34:17.648Z,17.10
2024-03-02T10:36:48.993Z,15.50
2024-03-02T10:39:18.627Z,15.70
2024-03-02T10:41:49.176Z,13.90
2024-03-02T10:44:17.794Z,14.10
2024-03-02T10:46:48.747Z,14.30
2024-03-02T10:49:16.822Z,15.60
2024-03-02T10:51:45.372Z,14.40
2024-03-02T10:54:13.648Z,14.70
2024-03-02T10:56:43.791Z,16.00
2024-03-02T10:59:38.107Z,14.80
2024-03-02T11:02:09.809Z,13.30
2024-03-02T11:04:40.135Z,16.30
2024-03-02T11:07:13.980Z,14.70
2024-03-02T11:09:46.279Z,11.80
2024-03-02T11:12:24.656Z,13.20
2024-03-02T11:14:55.870Z,15.40
2024-03-02T11:17:26.045Z,16.30
2024-03-02T11:19:54.761Z,17.60
2024-03-02T11:22:23.229Z,16.30
2024-03-02T11:24:53.523Z,15.50
2024-03-02T11:27:47.235Z,15.70
2024-03-02T11:30:34.345Z,12.40
2024-03-02T11:33:11.511Z,13.20
2024-03-02T11:35:49.749Z,13.50
2024-03-02T11:40:48.286Z,15.50
2024-03-02T11:43:16.546Z,12.40
2024-03-02T11:45:46.096Z,15.10
2024-03-02T11:48:17.636Z,15.50
2024-03-02T11:53:22.210Z,13.80
2024-03-02T11:55:51.482Z,13.80
2024-03-02T11:58:22.236Z,13.50
2024-03-02T12:00:57.848Z,13.80
2024-03-02T12:03:27.746Z,13.90
2024-03-02T12:05:57.268Z,13.30
2024-03-02T12:08:25.984Z,14.00
2024-03-02T12:10:59.559Z,18.60
2024-03-02T12:13:28.366Z,14.20
2024-03-02T12:15:59.794Z,14.00
2024-03-02T12:18:28.335Z,14.30
2024-03-02T12:20:59.303Z,15.10
2024-03-02T12:23:28.216Z,11.30
2024-03-02T12:25:56.990Z,15.00
2024-03-02T12:28:25.263Z,12.20
2024-03-02T12:30:53.728Z,13.40
2024-03-02T12:33:22.541Z,12.60
2024-03-02T12:35:51.786Z,15.50
2024-03-02T12:38:21.104Z,15.40
2024-03-02T12:40:51.076Z,15.10
2024-03-02T12:43:20.061Z,12.60
2024-03-02T12:45:48.986Z,13.90
2024-03-02T12:48:17.395Z,14.40
2024-03-02T12:50:45.979Z,14.50
2024-03-02T12:53:20.524Z,14.60
2024-03-02T12:55:50.442Z,15.20
2024-03-02T12:58:21.180Z,14.60
2024-03-02T13:00:50.255Z,14.20
2024-03-02T13:03:24.090Z,14.70
2024-03-02T13:05:54.534Z,17.80
2024-03-02T13:08:22.932Z,10.60
2024-03-02T13:10:51.178Z,12.50
2024-03-02T13:13:19.744Z,13.00
2024-03-02T13:15:48.363Z,13.10
2024-03-02T13:18:19.685Z,11.30
2024-03-02T13:20:48.151Z,12.80
2024-03-02T13:23:16.419Z,12.00
2024-03-02T13:25:44.696Z,9.00
2024-03-02T13:28:13.378Z,11.60
2024-03-02T13:30:42.435Z,13.00
2024-03-02T13:33:11.210Z,10.70
2024-03-02T13:35:39.276Z,10.80
2024-03-02T13:38:07.505Z,12.30
2024-03-02T13:40:36.965Z,12.50
2024-03-02T13:43:06.207Z,11.60
2024-03-02T13:45:34.975Z,11.80
2024-03-02T13:48:04.802Z,12.30
2024-03-02T13:50:33.924Z,12.30
2024-03-02T13:53:04.242Z,12.60
2024-03-02T13:55:32.934Z,12.60
2024-03-02T13:58:01.596Z,13.10
2024-03-02T14:00:30.974Z,12.00
2024-03-02T14:02:59.395Z,12.00
2024-03-02T14:05:28.361Z,13.30
2024-03-02T14:07:56.671Z,12.80
2024-03-02T14:10:25.071Z,12.70
2024-03-02T14:12:53.352Z,14.70
2024-03-02T14:15:22.062Z,12.50
2024-03-02T14:17:50.945Z,13.80
2024-03-02T14:20:23.634Z,11.60
2024-03-02T14:22:52.072Z,13.80
2024-03-02T14:25:20.928Z,11.90
2024-03-02T14:28:07.956Z,11.20
2024-03-02T14:30:38.489Z,12.40
2024-03-02T14:33:07.233Z,12.70
2024-03-02T14:35:36.019Z,11.60
2024-03-02T14:38:06.113Z,12.10
2024-03-02T14:40:34.555Z,14.40
2024-03-02T14:43:02.732Z,10.10
2024-03-02T14:45:31.249Z,10.90
2024-03-02T14:48:02.747Z,12.90
2024-03-02T14:50:31.769Z,12.50
2024-03-02T14:53:00.125Z,13.30
2024-03-02T14:55:28.733Z,13.50
2024-03-02T14:57:56.932Z,10.60
2024-03-02T15:00:25.196Z,11.40
2024-03-02T15:02:53.376Z,11.90
2024-03-02T15:05:21.537Z,11.80
2024-03-02T15:07:49.602Z,12.60
2024-03-02T15:10:18.386Z,16.00
2024-03-02T15:12:47.087Z,15.10
2024-03-02T15:15:15.840Z,13.40
2024-03-02T15:17:44.620Z,15.10
2024-03-02T15:20:13.254Z,14.80
2024-03-02T15:22:42.421Z,15.20
2024-03-02T15:25:11.066Z,13.20
2024-03-02T15:27:39.600Z,12.50
2024-03-02T15:30:08.472Z,14.00
2024-03-02T15:32:38.122Z,15.30
2024-03-02T15:35:07.692Z,13.60
2024-03-02T15:37:35.980Z,12.40
2024-03-02T15:40:07.991Z,14.40
2024-03-02T15:42:37.022Z,15.90
2024-03-02T15:45:06.107Z,14.60
2024-03-02T15:47:34.953Z,17.10
2024-03-02T15:50:05.335Z,16.50
2024-03-02T15:52:33.602Z,14.80
2024-03-02T15:55:02.953Z,16.10
2024-03-02T15:57:31.895Z,16.30
2024-03-02T16:00:00.140Z,15.40
2024-03-02T16:02:28.806Z,17.60
2024-03-02T16:04:57.928Z,15.50
2024-03-02T16:07:26.046Z,15.40
2024-03-02T16:09:54.306Z,14.60
2024-03-02T16:12:23.201Z,17.80
2024-03-02T16:14:52.806Z,15.80
2024-03-02T16:17:20.913Z,18.70
2024-03-02T16:19:49.735Z,16.80
2024-03-02T16:22:18.338Z,17.50
2024-03-02T16:24:46.576Z,15.60
2024-03-02T16:27:14.992Z,18.30
2024-03-02T16:29:43.366Z,17.30
2024-03-02T16:32:11.860Z,18.60
2024-03-02T16:34:40.227Z,16.60
2024-03-02T16:37:08.546Z,19.30
2024-03-02T16:39:36.864Z,20.20
2024-03-02T16:42:04.926Z,18.40
2024-03-02T16:44:33.038Z,20.40
2024-03-02T16:47:01.343Z,16.80
2024-03-02T16:49:30.909Z,20.50
2024-03-02T16:51:59.217Z,15.20
2024-03-02T16:54:27.902Z,19.90
2024-03-02T16:56:56.244Z,21.50
2024-03-02T16:59:24.621Z,18.70
2024-03-02T17:01:52.915Z,19.40
2024-03-02T17:04:25.057Z,16.60
2024-03-02T17:06:53.523Z,20.60
2024-03-02T17:09:22.971Z,22.20
2024-03-02T17:11:51.273Z,20.30
2024-03-02T17:14:19.458Z,18.90
2024-03-02T17:16:47.661Z,21.60
2024-03-02T17:19:16.089Z,26.60
2024-03-02T17:21:44.652Z,23.00
2024-03-02T17:24:12.804Z,20.60
2024-03-02T17:26:41.061Z,19.20
2024-03-02T17:29:09.594Z,24.10
2024-03-02T17:31:37.944Z,19.40
2024-03-02T17:34:06.361Z,21.70
2024-03-02T17:36:34.632Z,24.60
2024-03-02T17:39:05.274Z,20.40
2024-03-02T17:41:33.725Z,21.70
2024-03-02T17:44:02.192Z,22.70
2024-03-02T17:46:30.232Z,20.00
2024-03-02T17:48:58.480Z,18.50
2024-03-02T17:51:26.882Z,20.60
2024-03-02T17:53:55.219Z,21.20
2024-03-02T17:56:23.570Z,23.30
2024-03-02T17:58:51.885Z,20.20
2024-03-02T18:01:20.301Z,21.90
2024-03-02T18:03:48.926Z,22.10
2024-03-02T18:06:17.212Z,21.80
2024-03-02T18:08:45.588Z,21.60
2024-03-02T18:11:18.115Z,22.40
2024-03-02T18:13:47.133Z,26.00
2024-03-02T18:16:16.306Z,20.10
2024-03-02T18:18:44.951Z,19.40
2024-03-02T18:21:13.328Z,19.90
2024-03-02T18:23:42.913Z,19.60
2024-03-02T18:26:11.314Z,21.00
2024-03-02T18:28:41.157Z,18.50
2024-03-02T18:31:12.258Z,20.80
2024-03-02T18:33:40.804Z,17.20
2024-03-02T18:36:09.817Z,20.50
2024-03-02T18:38:37.977Z,19.20
2024-03-02T18:41:06.460Z,17.30
2024-03-02T18:43:34.752Z,20.30
2024-03-02T18:46:04.006Z,20.00
2024-03-02T18:48:32.243Z,20.20
2024-03-02T18:51:05.800Z,17.80
2024-03-02T18:53:33.886Z,21.00
2024-03-02T18:56:01.987Z,17.10
2024-03-02T18:58:31.480Z,21.60
2024-03-02T19:00:59.972Z,19.00
2024-03-02T19:03:28.642Z,21.00
2024-03-02T19:05:56.909Z,17.80
2024-03-02T19:08:28.462Z,21.30
2024-03-02T19:13:27.698Z,17.40
2024-03-02T19:15:55.868Z,18.30
2024-03-02T19:18:24.337Z,18.40
2024-03-02T19:20:52.914Z,19.50
2024-03-02T19:23:25.817Z,19.70
2024-03-02T19:26:00.444Z,17.30
2024-03-02T19:28:28.802Z,20.70
2024-03-02T19:30:57.155Z,19.40
2024-03-02T19:33:26.629Z,16.90
2024-03-02T19:35:55.728Z,16.90
2024-03-02T19:38:26.030Z,19.10
2024-03-02T19:40:54.199Z,16.70
2024-03-02T19:43:22.435Z,21.40
2024-03-02T19:45:50.619Z,19.50
2024-03-02T19:48:19.306Z,18.60
2024-03-02T19:50:49.072Z,17.00
2024-03-02T19:53:17.125Z,17.50
2024-03-02T19:55:45.735Z,15.70
2024-03-02T19:58:14.236Z,17.60
2024-03-02T20:00:42.973Z,15.00
2024-03-02T20:03:12.355Z,16.60
2024-03-02T20:05:40.731Z,16.00
2024-03-02T20:08:09.093Z,15.40
2024-03-02T20:10:37.474Z,16.90
2024-03-02T20:13:07.250Z,13.80
2024-03-02T20:15:35.833Z,15.60
2024-03-02T20:18:04.263Z,15.20
2024-03-02T20:20:32.639Z,16.40
2024-03-02T20:23:00.816Z,14.70
2024-03-02T20:25:29.719Z,15.30
2024-03-02T20:28:00.318Z,15.20
2024-03-02T20:30:28.535Z,14.40
2024-03-02T20:32:57.006Z,14.20
2024-03-02T20:35:25.177Z,14.60
2024-03-02T20:37:53.960Z,13.70
2024-03-02T20:40:22.221Z,15.30
2024-03-02T20:42:50.722Z,13.60
2024-03-02T20:45:19.863Z,15.30
2024-03-02T20:47:48.269Z,12.60
2024-03-02T20:50:16.726Z,12.70
2024-03-02T20:52:46.598Z,13.10
2024-03-02T20:55:15.154Z,13.10
2024-03-02T20:57:43.489Z,12.90
2024-03-02T21:00:12.113Z,13.00
2024-03-02T21:02:40.711Z,12.10
2024-03-02T21:05:09.585Z,15.40
2024-03-02T21:07:39.522Z,14.60
2024-03-02T21:10:10.065Z,13.00
2024-03-02T21:12:40.068Z,15.40
2024-03-02T21:15:08.826Z,14.00
2024-03-02T21:17:37.242Z,13.40
2024-03-02T21:20:09.691Z,15.50
2024-03-02T21:22:39.662Z,14.50
2024-03-02T21:25:13.158Z,15.50
2024-03-02T21:27:42.044Z,15.50
2024-03-02T21:30:11.597Z,14.90
2024-03-02T21:32:39.900Z,15.40
2024-03-02T21:35:08.686Z,14.70
2024-03-02T21:37:37.037Z,15.50
2024-03-02T21:40:06.268Z,13.10
2024-03-02T21:42:34.590Z,16.60
2024-03-02T21:45:02.914Z,15.50
2024-03-02T21:47:31.496Z,15.90
2024-03-02T21:49:59.960Z,17.50
2024-03-02T21:52:28.103Z,18.00
2024-03-02T21:54:56.663Z,14.10
2024-03-02T21:57:26.148Z,15.10
2024-03-02T21:59:54.318Z,15.10
2024-03-02T22:02:22.450Z,14.70
2024-03-02T22:04:50.738Z,17.60
2024-03-02T22:07:19.004Z,15.80
2024-03-02T22:09:47.634Z,18.10
2024-03-02T22:12:15.870Z,16.50
2024-03-02T22:14:44.146Z,15.50
2024-03-02T22:17:13.341Z,16.50
2024-03-02T22:19:41.646Z,15.50
2024-03-02T22:22:10.370Z,16.90
2024-03-02T22:24:39.193Z,13.70
2024-03-02T22:27:07.475Z,15.00
2024-03-02T22:29:36.054Z,15.00
2024-03-02T22:32:06.969Z,16.80
2024-03-02T22:34:35.969Z,15.80
2024-03-02T22:37:04.920Z,16.80
2024-03-02T22:39:33.143Z,15.20
2024-03-02T22:42:01.543Z,17.40
2024-03-02T22:44:29.642Z,14.60
2024-03-02T22:46:57.873Z,15.30
2024-03-02T22:49:25.957Z,17.90
2024-03-02T22:51:54.174Z,18.10
2024-03-02T22:54:22.398Z,18.20
2024-03-02T22:56:50.703Z,17.90
2024-03-02T22:59:18.864Z,16.10
2024-03-02T23:01:47.299Z,15.80
2024-03-02T23:04:15.944Z,19.60
2024-03-02T23:06:44.330Z,15.00
2024-03-02T23:09:15.738Z,19.70
2024-03-02T23:11:44.223Z,15.30
2024-03-02T23:14:12.403Z,15.60
2024-03-02T23:16:45.493Z,16.80
2024-03-02T23:19:15.420Z,17.60
2024-03-02T23:21:43.934Z,15.90
2024-03-02T23:24:12.261Z,15.00
2024-03-02T23:26:40.578Z,16.70
2024-03-02T23:29:08.693Z,17.80
2024-03-02T23:31:37.016Z,17.10
2024-03-02T23:34:05.511Z,18.40
2024-03-02T23:36:33.850Z,19.50
2024-03-02T23:39:05.699Z,17.10
2024-03-02T23:41:35.202Z,18.40
2024-03-02T23:44:03.701Z,15.30
2024-03-02T23:46:32.681Z,13.50
2024-03-02T23:49:00.994Z,15.70
2024-03-02T23:51:29.153Z,16.50
2024-03-02T23:53:57.737Z,20.20
2024-03-02T23:56:26.090Z,17.50
2024-03-02T23:58:54.487Z,15.40
